sensor_id;sensor_type;location;lat;lon;timestamp;P1;durP1;ratioP1;P2;durP2;ratioP2
75935;SDS011;64614;32.062;34.834;2023-02-11T00:01:55;4.20;;;2.30;;
75935;SDS011;64614;32.062;34.834;2023-02-11T00:04:21;5.78;;;2.30;;
75935;SDS011;64614;32.062;34.834;2023-02-11T00:06:48;3.90;;;2.30;;
75935;SDS011;64614;32.062;34.834;2023-02-11T00:09:16;4.60;;;2.42;;
75935;SDS011;64614;32.062;34.834;2023-02-11T00:11:42;6.00;;;2.67;;
75935;SDS011;64614;32.062;34.834;2023-02-11T00:14:09;5.35;;;2.65;;
75935;SDS011;64614;32.062;34.834;2023-02-11T00:16:35;5.07;;;2.50;;
75935;SDS011;64614;32.062;34.834;2023-02-11T00:19:01;6.35;;;2.38;;
75935;SDS011;64614;32.062;34.834;2023-02-11T00:21:30;4.50;;;2.50;;
75935;SDS011;64614;32.062;34.834;2023-02-11T00:23:57;5.32;;;2.30;;
75935;SDS011;64614;32.062;34.834;2023-02-11T00:26:29;4.22;;;2.10;;
75935;SDS011;64614;32.062;34.834;2023-02-11T00:28:58;4.20;;;2.40;;
75935;SDS011;64614;32.062;34.834;2023-02-11T00:31:26;5.55;;;2.58;;
75935;SDS011;64614;32.062;34.834;2023-02-11T00:33:53;6.60;;;2.65;;
75935;SDS011;64614;32.062;34.834;2023-02-11T00:36:22;3.75;;;2.10;;
75935;SDS011;64614;32.062;34.834;2023-02-11T00:38:51;6.10;;;2.53;;
75935;SDS011;64614;32.062;34.834;2023-02-11T00:41:18;4.55;;;2.30;;
75935;SDS011;64614;32.062;34.834;2023-02-11T00:43:45;4.40;;;2.08;;
75935;SDS011;64614;32.062;34.834;2023-02-11T00:46:11;5.28;;;2.50;;
75935;SDS011;64614;32.062;34.834;2023-02-11T00:48:37;4.32;;;2.30;;
75935;SDS011;64614;32.062;34.834;2023-02-11T00:51:03;4.25;;;2.28;;
75935;SDS011;64614;32.062;34.834;2023-02-11T00:53:30;4.68;;;2.65;;
75935;SDS011;64614;32.062;34.834;2023-02-11T00:55:57;5.38;;;2.38;;
75935;SDS011;64614;32.062;34.834;2023-02-11T00:58:22;5.28;;;2.40;;
75935;SDS011;64614;32.062;34.834;2023-02-11T01:00:48;6.47;;;2.33;;
75935;SDS011;64614;32.062;34.834;2023-02-11T01:03:14;5.85;;;2.30;;
75935;SDS011;64614;32.062;34.834;2023-02-11T01:05:40;5.47;;;2.28;;
75935;SDS011;64614;32.062;34.834;2023-02-11T01:08:05;6.07;;;2.40;;
75935;SDS011;64614;32.062;34.834;2023-02-11T01:10:33;6.13;;;2.40;;
75935;SDS011;64614;32.062;34.834;2023-02-11T01:12:58;5.90;;;2.30;;
75935;SDS011;64614;32.062;34.834;2023-02-11T01:15:26;5.22;;;2.20;;
75935;SDS011;64614;32.062;34.834;2023-02-11T01:17:53;5.45;;;2.10;;
75935;SDS011;64614;32.062;34.834;2023-02-11T01:20:20;4.65;;;2.42;;
75935;SDS011;64614;32.062;34.834;2023-02-11T01:22:48;5.18;;;2.30;;
75935;SDS011;64614;32.062;34.834;2023-02-11T01:25:14;4.32;;;2.22;;
75935;SDS011;64614;32.062;34.834;2023-02-11T01:27:40;4.50;;;2.00;;
75935;SDS011;64614;32.062;34.834;2023-02-11T01:30:06;4.72;;;2.40;;
75935;SDS011;64614;32.062;34.834;2023-02-11T01:32:33;6.65;;;2.53;;
75935;SDS011;64614;32.062;34.834;2023-02-11T01:35:00;5.00;;;2.50;;
75935;SDS011;64614;32.062;34.834;2023-02-11T01:37:28;4.75;;;2.25;;
75935;SDS011;64614;32.062;34.834;2023-02-11T01:39:57;4.55;;;2.03;;
75935;SDS011;64614;32.062;34.834;2023-02-11T01:42:24;4.65;;;2.00;;
75935;SDS011;64614;32.062;34.834;2023-02-11T01:44:52;4.95;;;2.30;;
75935;SDS011;64614;32.062;34.834;2023-02-11T01:47:21;4.32;;;2.08;;
75935;SDS011;64614;32.062;34.834;2023-02-11T01:49:51;5.70;;;2.03;;
75935;SDS011;64614;32.062;34.834;2023-02-11T01:54:58;5.32;;;2.33;;
75935;SDS011;64614;32.062;34.834;2023-02-11T01:57:47;3.55;;;1.83;;
75935;SDS011;64614;32.062;34.834;2023-02-11T02:00:30;4.28;;;2.08;;
75935;SDS011;64614;32.062;34.834;2023-02-11T02:03:12;3.65;;;2.00;;
75935;SDS011;64614;32.062;34.834;2023-02-11T02:06:00;4.03;;;1.90;;
75935;SDS011;64614;32.062;34.834;2023-02-11T02:08:39;3.72;;;2.00;;
75935;SDS011;64614;32.062;34.834;2023-02-11T02:11:19;3.70;;;2.05;;
75935;SDS011;64614;32.062;34.834;2023-02-11T02:13:45;3.95;;;1.90;;
75935;SDS011;64614;32.062;34.834;2023-02-11T02:16:12;3.42;;;1.90;;
75935;SDS011;64614;32.062;34.834;2023-02-11T02:36:01;3.95;;;1.98;;
75935;SDS011;64614;32.062;34.834;2023-02-11T02:41:23;5.40;;;2.05;;
75935;SDS011;64614;32.062;34.834;2023-02-11T02:43:54;4.55;;;2.10;;
75935;SDS011;64614;32.062;34.834;2023-02-11T02:46:30;4.32;;;1.90;;
75935;SDS011;64614;32.062;34.834;2023-02-11T02:48:57;3.85;;;1.83;;
75935;SDS011;64614;32.062;34.834;2023-02-11T02:51:29;3.47;;;1.80;;
75935;SDS011;64614;32.062;34.834;2023-02-11T03:08:31;5.00;;;1.90;;
75935;SDS011;64614;32.062;34.834;2023-02-11T03:11:16;3.92;;;2.08;;
75935;SDS011;64614;32.062;34.834;2023-02-11T03:13:44;3.63;;;2.20;;
75935;SDS011;64614;32.062;34.834;2023-02-11T03:16:14;4.22;;;2.03;;
75935;SDS011;64614;32.062;34.834;2023-02-11T03:18:45;3.70;;;2.03;;
75935;SDS011;64614;32.062;34.834;2023-02-11T03:21:16;4.40;;;1.83;;
75935;SDS011;64614;32.062;34.834;2023-02-11T03:23:53;5.70;;;2.05;;
75935;SDS011;64614;32.062;34.834;2023-02-11T03:26:27;3.95;;;2.00;;
75935;SDS011;64614;32.062;34.834;2023-02-11T03:29:58;4.95;;;2.10;;
75935;SDS011;64614;32.062;34.834;2023-02-11T03:31:58;4.30;;;2.00;;
75935;SDS011;64614;32.062;34.834;2023-02-11T03:37:38;4.40;;;2.15;;
75935;SDS011;64614;32.062;34.834;2023-02-11T03:40:12;3.83;;;1.52;;
75935;SDS011;64614;32.062;34.834;2023-02-11T03:42:53;3.92;;;1.65;;
75935;SDS011;64614;32.062;34.834;2023-02-11T03:45:26;4.43;;;1.90;;
75935;SDS011;64614;32.062;34.834;2023-02-11T03:48:02;5.57;;;1.77;;
75935;SDS011;64614;32.062;34.834;2023-02-11T03:50:33;5.20;;;1.98;;
75935;SDS011;64614;32.062;34.834;2023-02-11T03:53:01;4.10;;;1.92;;
75935;SDS011;64614;32.062;34.834;2023-02-11T03:55:29;3.17;;;1.70;;
75935;SDS011;64614;32.062;34.834;2023-02-11T03:58:00;5.47;;;1.75;;
75935;SDS011;64614;32.062;34.834;2023-02-11T04:00:30;5.05;;;1.73;;
75935;SDS011;64614;32.062;34.834;2023-02-11T04:02:57;3.83;;;1.80;;
75935;SDS011;64614;32.062;34.834;2023-02-11T04:05:22;2.63;;;1.60;;
75935;SDS011;64614;32.062;34.834;2023-02-11T04:07:48;4.97;;;1.92;;
75935;SDS011;64614;32.062;34.834;2023-02-11T04:10:14;4.13;;;1.88;;
75935;SDS011;64614;32.062;34.834;2023-02-11T04:12:39;2.97;;;1.50;;
75935;SDS011;64614;32.062;34.834;2023-02-11T04:15:05;3.53;;;1.80;;
75935;SDS011;64614;32.062;34.834;2023-02-11T04:17:31;3.90;;;1.60;;
75935;SDS011;64614;32.062;34.834;2023-02-11T04:19:57;5.78;;;1.85;;
75935;SDS011;64614;32.062;34.834;2023-02-11T04:22:23;3.47;;;1.50;;
75935;SDS011;64614;32.062;34.834;2023-02-11T04:24:49;3.70;;;1.70;;
75935;SDS011;64614;32.062;34.834;2023-02-11T04:27:14;2.90;;;1.50;;
75935;SDS011;64614;32.062;34.834;2023-02-11T04:29:40;5.15;;;1.90;;
75935;SDS011;64614;32.062;34.834;2023-02-11T04:32:07;4.00;;;2.00;;
75935;SDS011;64614;32.062;34.834;2023-02-11T04:34:35;6.93;;;1.80;;
75935;SDS011;64614;32.062;34.834;2023-02-11T04:37:00;5.10;;;1.70;;
75935;SDS011;64614;32.062;34.834;2023-02-11T04:39:27;4.15;;;1.70;;
75935;SDS011;64614;32.062;34.834;2023-02-11T04:41:53;4.70;;;1.92;;
75935;SDS011;64614;32.062;34.834;2023-02-11T04:44:19;4.47;;;1.63;;
75935;SDS011;64614;32.062;34.834;2023-02-11T04:46:45;3.30;;;1.70;;
75935;SDS011;64614;32.062;34.834;2023-02-11T04:49:13;5.03;;;1.90;;
75935;SDS011;64614;32.062;34.834;2023-02-11T04:51:40;3.28;;;1.60;;
75935;SDS011;64614;32.062;34.834;2023-02-11T04:54:06;5.55;;;2.03;;
75935;SDS011;64614;32.062;34.834;2023-02-11T04:56:32;3.05;;;1.73;;
75935;SDS011;64614;32.062;34.834;2023-02-11T04:58:59;6.30;;;1.75;;
75935;SDS011;64614;32.062;34.834;2023-02-11T05:01:25;3.42;;;1.77;;
75935;SDS011;64614;32.062;34.834;2023-02-11T05:03:50;3.05;;;1.75;;
75935;SDS011;64614;32.062;34.834;2023-02-11T05:06:16;3.72;;;1.65;;
75935;SDS011;64614;32.062;34.834;2023-02-11T05:08:42;5.00;;;1.50;;
75935;SDS011;64614;32.062;34.834;2023-02-11T05:11:11;5.82;;;2.22;;
75935;SDS011;64614;32.062;34.834;2023-02-11T05:13:40;4.80;;;1.70;;
75935;SDS011;64614;32.062;34.834;2023-02-11T05:16:06;4.18;;;1.90;;
75935;SDS011;64614;32.062;34.834;2023-02-11T05:18:33;4.57;;;1.75;;
75935;SDS011;64614;32.062;34.834;2023-02-11T05:23:37;4.22;;;1.70;;
75935;SDS011;64614;32.062;34.834;2023-02-11T05:26:04;4.65;;;1.88;;
75935;SDS011;64614;32.062;34.834;2023-02-11T05:28:33;5.47;;;1.90;;
75935;SDS011;64614;32.062;34.834;2023-02-11T05:30:59;6.40;;;2.10;;
75935;SDS011;64614;32.062;34.834;2023-02-11T05:33:26;9.55;;;2.38;;
75935;SDS011;64614;32.062;34.834;2023-02-11T05:35:59;8.23;;;2.42;;
75935;SDS011;64614;32.062;34.834;2023-02-11T05:38:28;11.07;;;2.58;;
75935;SDS011;64614;32.062;34.834;2023-02-11T05:40:53;8.43;;;2.50;;
75935;SDS011;64614;32.062;34.834;2023-02-11T05:43:19;6.28;;;2.40;;
75935;SDS011;64614;32.062;34.834;2023-02-11T05:45:47;7.72;;;2.20;;
75935;SDS011;64614;32.062;34.834;2023-02-11T05:48:13;8.63;;;2.13;;
75935;SDS011;64614;32.062;34.834;2023-02-11T05:50:39;9.98;;;2.17;;
75935;SDS011;64614;32.062;34.834;2023-02-11T05:53:08;9.90;;;2.50;;
75935;SDS011;64614;32.062;34.834;2023-02-11T05:55:34;11.70;;;2.72;;
75935;SDS011;64614;32.062;34.834;2023-02-11T05:58:00;10.50;;;2.38;;
75935;SDS011;64614;32.062;34.834;2023-02-11T06:00:26;7.00;;;2.40;;
75935;SDS011;64614;32.062;34.834;2023-02-11T06:02:52;8.43;;;2.63;;
75935;SDS011;64614;32.062;34.834;2023-02-11T06:05:18;8.13;;;2.33;;
75935;SDS011;64614;32.062;34.834;2023-02-11T06:07:44;8.00;;;2.35;;
75935;SDS011;64614;32.062;34.834;2023-02-11T06:10:09;6.38;;;2.35;;
75935;SDS011;64614;32.062;34.834;2023-02-11T06:12:35;9.90;;;2.28;;
75935;SDS011;64614;32.062;34.834;2023-02-11T06:15:02;7.07;;;2.20;;
75935;SDS011;64614;32.062;34.834;2023-02-11T06:17:28;11.10;;;2.70;;
75935;SDS011;64614;32.062;34.834;2023-02-11T06:19:59;10.60;;;2.53;;
75935;SDS011;64614;32.062;34.834;2023-02-11T06:22:27;10.40;;;2.50;;
75935;SDS011;64614;32.062;34.834;2023-02-11T06:24:54;7.80;;;2.40;;
75935;SDS011;64614;32.062;34.834;2023-02-11T06:27:21;8.85;;;2.45;;
75935;SDS011;64614;32.062;34.834;2023-02-11T06:29:47;7.97;;;2.42;;
75935;SDS011;64614;32.062;34.834;2023-02-11T06:32:13;10.02;;;2.60;;
75935;SDS011;64614;32.062;34.834;2023-02-11T06:34:39;6.93;;;2.10;;
75935;SDS011;64614;32.062;34.834;2023-02-11T06:37:05;6.93;;;2.40;;
75935;SDS011;64614;32.062;34.834;2023-02-11T06:39:31;8.75;;;2.70;;
75935;SDS011;64614;32.062;34.834;2023-02-11T06:41:56;7.60;;;2.20;;
75935;SDS011;64614;32.062;34.834;2023-02-11T06:44:22;7.32;;;2.45;;
75935;SDS011;64614;32.062;34.834;2023-02-11T06:46:48;8.48;;;2.20;;
75935;SDS011;64614;32.062;34.834;2023-02-11T06:49:13;8.55;;;2.50;;
75935;SDS011;64614;32.062;34.834;2023-02-11T06:51:39;7.93;;;2.22;;
75935;SDS011;64614;32.062;34.834;2023-02-11T06:54:05;5.57;;;2.10;;
75935;SDS011;64614;32.062;34.834;2023-02-11T06:56:31;6.72;;;2.25;;
75935;SDS011;64614;32.062;34.834;2023-02-11T06:58:57;7.40;;;2.20;;
75935;SDS011;64614;32.062;34.834;2023-02-11T07:01:24;8.75;;;2.45;;
75935;SDS011;64614;32.062;34.834;2023-02-11T07:03:51;8.35;;;2.50;;
75935;SDS011;64614;32.062;34.834;2023-02-11T07:06:21;6.82;;;2.10;;
75935;SDS011;64614;32.062;34.834;2023-02-11T07:08:49;6.85;;;2.47;;
75935;SDS011;64614;32.062;34.834;2023-02-11T07:11:16;5.38;;;2.17;;
75935;SDS011;64614;32.062;34.834;2023-02-11T07:13:45;7.22;;;2.28;;
75935;SDS011;64614;32.062;34.834;2023-02-11T07:16:13;9.68;;;2.63;;
75935;SDS011;64614;32.062;34.834;2023-02-11T07:18:40;7.97;;;2.58;;
75935;SDS011;64614;32.062;34.834;2023-02-11T07:21:09;8.50;;;2.30;;
75935;SDS011;64614;32.062;34.834;2023-02-11T07:23:39;8.73;;;2.38;;
75935;SDS011;64614;32.062;34.834;2023-02-11T07:26:06;9.10;;;2.38;;
75935;SDS011;64614;32.062;34.834;2023-02-11T07:28:35;7.90;;;2.10;;
75935;SDS011;64614;32.062;34.834;2023-02-11T07:33:34;6.53;;;2.10;;
75935;SDS011;64614;32.062;34.834;2023-02-11T07:36:02;8.10;;;2.42;;
75935;SDS011;64614;32.062;34.834;2023-02-11T07:38:30;7.13;;;2.17;;
75935;SDS011;64614;32.062;34.834;2023-02-11T07:41:00;8.45;;;2.45;;
75935;SDS011;64614;32.062;34.834;2023-02-11T07:43:30;7.88;;;2.47;;
75935;SDS011;64614;32.062;34.834;2023-02-11T07:45:56;7.53;;;2.15;;
75935;SDS011;64614;32.062;34.834;2023-02-11T07:48:22;6.68;;;2.10;;
75935;SDS011;64614;32.062;34.834;2023-02-11T07:50:50;6.97;;;2.10;;
75935;SDS011;64614;32.062;34.834;2023-02-11T07:53:16;7.10;;;2.22;;
75935;SDS011;64614;32.062;34.834;2023-02-11T07:55:42;10.38;;;2.35;;
75935;SDS011;64614;32.062;34.834;2023-02-11T07:58:09;6.15;;;1.95;;
75935;SDS011;64614;32.062;34.834;2023-02-11T08:00:35;5.38;;;2.13;;
75935;SDS011;64614;32.062;34.834;2023-02-11T08:03:01;5.88;;;2.15;;
75935;SDS011;64614;32.062;34.834;2023-02-11T08:05:28;6.25;;;2.00;;
75935;SDS011;64614;32.062;34.834;2023-02-11T08:07:54;5.10;;;1.80;;
75935;SDS011;64614;32.062;34.834;2023-02-11T08:10:20;6.20;;;2.08;;
75935;SDS011;64614;32.062;34.834;2023-02-11T08:12:46;4.25;;;1.80;;
75935;SDS011;64614;32.062;34.834;2023-02-11T08:15:12;6.45;;;2.00;;
75935;SDS011;64614;32.062;34.834;2023-02-11T08:17:37;5.97;;;2.20;;
75935;SDS011;64614;32.062;34.834;2023-02-11T08:20:04;5.45;;;1.98;;
75935;SDS011;64614;32.062;34.834;2023-02-11T08:22:31;6.50;;;2.03;;
75935;SDS011;64614;32.062;34.834;2023-02-11T08:24:59;5.88;;;2.10;;
75935;SDS011;64614;32.062;34.834;2023-02-11T08:27:26;5.65;;;2.08;;
75935;SDS011;64614;32.062;34.834;2023-02-11T08:29:52;5.07;;;1.70;;
75935;SDS011;64614;32.062;34.834;2023-02-11T08:32:18;5.57;;;1.88;;
75935;SDS011;64614;32.062;34.834;2023-02-11T08:34:45;4.35;;;1.65;;
75935;SDS011;64614;32.062;34.834;2023-02-11T08:37:16;5.53;;;1.98;;
75935;SDS011;64614;32.062;34.834;2023-02-11T08:39:41;4.60;;;1.95;;
75935;SDS011;64614;32.062;34.834;2023-02-11T08:42:07;5.18;;;1.90;;
75935;SDS011;64614;32.062;34.834;2023-02-11T08:44:33;4.72;;;1.92;;
75935;SDS011;64614;32.062;34.834;2023-02-11T08:46:58;5.45;;;2.17;;
75935;SDS011;64614;32.062;34.834;2023-02-11T08:49:24;4.93;;;1.80;;
75935;SDS011;64614;32.062;34.834;2023-02-11T08:51:49;4.47;;;1.65;;
75935;SDS011;64614;32.062;34.834;2023-02-11T08:56:40;4.72;;;2.00;;
75935;SDS011;64614;32.062;34.834;2023-02-11T08:59:07;5.57;;;1.88;;
75935;SDS011;64614;32.062;34.834;2023-02-11T09:01:37;7.15;;;1.92;;
75935;SDS011;64614;32.062;34.834;2023-02-11T09:04:03;5.63;;;1.90;;
75935;SDS011;64614;32.062;34.834;2023-02-11T09:06:29;4.88;;;1.63;;
75935;SDS011;64614;32.062;34.834;2023-02-11T09:08:55;5.18;;;1.90;;
75935;SDS011;64614;32.062;34.834;2023-02-11T09:11:29;4.85;;;1.80;;
75935;SDS011;64614;32.062;34.834;2023-02-11T09:13:57;5.55;;;1.70;;
75935;SDS011;64614;32.062;34.834;2023-02-11T09:16:25;4.10;;;1.80;;
75935;SDS011;64614;32.062;34.834;2023-02-11T09:19:11;4.43;;;1.88;;
75935;SDS011;64614;32.062;34.834;2023-02-11T09:21:37;4.63;;;1.98;;
75935;SDS011;64614;32.062;34.834;2023-02-11T09:24:04;4.55;;;1.65;;
75935;SDS011;64614;32.062;34.834;2023-02-11T09:26:32;5.88;;;1.70;;
75935;SDS011;64614;32.062;34.834;2023-02-11T09:31:26;4.88;;;2.00;;
75935;SDS011;64614;32.062;34.834;2023-02-11T09:33:54;4.15;;;1.63;;
75935;SDS011;64614;32.062;34.834;2023-02-11T09:36:22;5.03;;;1.80;;
75935;SDS011;64614;32.062;34.834;2023-02-11T09:38:50;4.82;;;1.73;;
75935;SDS011;64614;32.062;34.834;2023-02-11T09:43:52;4.28;;;1.58;;
75935;SDS011;64614;32.062;34.834;2023-02-11T09:46:23;3.70;;;1.67;;
75935;SDS011;64614;32.062;34.834;2023-02-11T09:48:53;4.20;;;1.95;;
75935;SDS011;64614;32.062;34.834;2023-02-11T09:51:28;3.28;;;1.60;;
75935;SDS011;64614;32.062;34.834;2023-02-11T09:54:11;4.25;;;1.65;;
75935;SDS011;64614;32.062;34.834;2023-02-11T09:56:47;5.15;;;2.00;;
75935;SDS011;64614;32.062;34.834;2023-02-11T09:59:14;5.13;;;2.25;;
75935;SDS011;64614;32.062;34.834;2023-02-11T10:01:59;3.90;;;1.80;;
75935;SDS011;64614;32.062;34.834;2023-02-11T10:09:59;6.82;;;2.30;;
75935;SDS011;64614;32.062;34.834;2023-02-11T10:13:05;5.05;;;1.80;;
75935;SDS011;64614;32.062;34.834;2023-02-11T10:23:55;4.35;;;1.70;;
75935;SDS011;64614;32.062;34.834;2023-02-11T10:29:00;5.75;;;2.10;;
75935;SDS011;64614;32.062;34.834;2023-02-11T10:31:35;7.20;;;1.90;;
75935;SDS011;64614;32.062;34.834;2023-02-11T10:36:35;4.28;;;1.60;;
75935;SDS011;64614;32.062;34.834;2023-02-11T10:39:14;4.20;;;1.80;;
75935;SDS011;64614;32.062;34.834;2023-02-11T10:41:47;5.05;;;1.88;;
75935;SDS011;64614;32.062;34.834;2023-02-11T10:44:29;5.70;;;2.03;;
75935;SDS011;64614;32.062;34.834;2023-02-11T10:50:17;7.80;;;2.30;;
75935;SDS011;64614;32.062;34.834;2023-02-11T10:52:48;6.18;;;1.88;;
75935;SDS011;64614;32.062;34.834;2023-02-11T10:57:53;7.30;;;2.20;;
75935;SDS011;64614;32.062;34.834;2023-02-11T11:00:27;5.35;;;2.50;;
75935;SDS011;64614;32.062;34.834;2023-02-11T11:05:48;6.43;;;2.30;;
75935;SDS011;64614;32.062;34.834;2023-02-11T11:08:20;6.47;;;2.35;;
75935;SDS011;64614;32.062;34.834;2023-02-11T11:11:06;7.85;;;2.25;;
75935;SDS011;64614;32.062;34.834;2023-02-11T11:13:40;8.77;;;2.53;;
75935;SDS011;64614;32.062;34.834;2023-02-11T11:16:22;9.77;;;2.63;;
75935;SDS011;64614;32.062;34.834;2023-02-11T12:54:59;5.85;;;2.22;;
75935;SDS011;64614;32.062;34.834;2023-02-11T12:57:33;7.95;;;2.38;;
75935;SDS011;64614;32.062;34.834;2023-02-11T13:00:22;7.15;;;2.50;;
75935;SDS011;64614;32.062;34.834;2023-02-11T13:03:10;5.85;;;2.30;;
75935;SDS011;64614;32.062;34.834;2023-02-11T13:05:54;5.68;;;2.40;;
75935;SDS011;64614;32.062;34.834;2023-02-11T13:08:28;7.28;;;2.38;;
75935;SDS011;64614;32.062;34.834;2023-02-11T13:10:56;6.28;;;2.47;;
75935;SDS011;64614;32.062;34.834;2023-02-11T13:13:28;7.50;;;2.35;;
75935;SDS011;64614;32.062;34.834;2023-02-11T13:19:07;5.65;;;2.28;;
75935;SDS011;64614;32.062;34.834;2023-02-11T13:27:56;10.07;;;2.10;;
75935;SDS011;64614;32.062;34.834;2023-02-11T13:30:33;8.30;;;2.42;;
75935;SDS011;64614;32.062;34.834;2023-02-11T13:35:44;6.95;;;2.40;;
75935;SDS011;64614;32.062;34.834;2023-02-11T13:38:34;6.45;;;2.03;;
75935;SDS011;64614;32.062;34.834;2023-02-11T13:44:02;5.30;;;1.98;;
75935;SDS011;64614;32.062;34.834;2023-02-11T13:49:39;6.57;;;2.25;;
75935;SDS011;64614;32.062;34.834;2023-02-11T13:52:36;5.05;;;2.00;;
75935;SDS011;64614;32.062;34.834;2023-02-11T13:55:04;7.90;;;2.65;;
75935;SDS011;64614;32.062;34.834;2023-02-11T13:57:38;7.43;;;2.13;;
75935;SDS011;64614;32.062;34.834;2023-02-11T14:06:15;4.75;;;2.00;;
75935;SDS011;64614;32.062;34.834;2023-02-11T14:14:31;6.75;;;2.22;;
75935;SDS011;64614;32.062;34.834;2023-02-11T14:22:43;7.05;;;2.53;;
75935;SDS011;64614;32.062;34.834;2023-02-11T14:25:24;6.35;;;2.13;;
75935;SDS011;64614;32.062;34.834;2023-02-11T14:27:55;5.50;;;2.10;;
75935;SDS011;64614;32.062;34.834;2023-02-11T14:30:28;5.15;;;1.92;;
75935;SDS011;64614;32.062;34.834;2023-02-11T14:33:19;5.88;;;2.22;;
75935;SDS011;64614;32.062;34.834;2023-02-11T14:39:07;6.50;;;2.30;;
75935;SDS011;64614;32.062;34.834;2023-02-11T14:41:42;5.05;;;1.98;;
75935;SDS011;64614;32.062;34.834;2023-02-11T14:44:20;5.20;;;2.00;;
75935;SDS011;64614;32.062;34.834;2023-02-11T14:46:49;4.15;;;1.73;;
75935;SDS011;64614;32.062;34.834;2023-02-11T14:49:30;5.30;;;2.05;;
75935;SDS011;64614;32.062;34.834;2023-02-11T14:52:03;5.82;;;2.10;;
75935;SDS011;64614;32.062;34.834;2023-02-11T14:54:38;5.82;;;2.05;;
75935;SDS011;64614;32.062;34.834;2023-02-11T14:59:39;7.80;;;2.67;;
75935;SDS011;64614;32.062;34.834;2023-02-11T15:02:36;8.75;;;2.40;;
75935;SDS011;64614;32.062;34.834;2023-02-11T15:08:00;7.20;;;2.90;;
75935;SDS011;64614;32.062;34.834;2023-02-11T15:10:37;9.20;;;2.70;;
75935;SDS011;64614;32.062;34.834;2023-02-11T15:13:12;9.30;;;2.80;;
75935;SDS011;64614;32.062;34.834;2023-02-11T15:15:43;7.82;;;2.75;;
75935;SDS011;64614;32.062;34.834;2023-02-11T15:18:15;9.20;;;2.83;;
75935;SDS011;64614;32.062;34.834;2023-02-11T15:20:47;8.75;;;2.58;;
75935;SDS011;64614;32.062;34.834;2023-02-11T15:23:17;10.60;;;3.00;;
75935;SDS011;64614;32.062;34.834;2023-02-11T15:28:18;11.80;;;3.20;;
75935;SDS011;64614;32.062;34.834;2023-02-11T15:30:54;8.18;;;3.33;;
75935;SDS011;64614;32.062;34.834;2023-02-11T15:33:24;9.68;;;3.13;;
75935;SDS011;64614;32.062;34.834;2023-02-11T15:35:57;10.27;;;3.20;;
75935;SDS011;64614;32.062;34.834;2023-02-11T15:38:24;9.98;;;3.17;;
75935;SDS011;64614;32.062;34.834;2023-02-11T15:40:54;11.30;;;3.40;;
75935;SDS011;64614;32.062;34.834;2023-02-11T15:43:47;8.10;;;3.20;;
75935;SDS011;64614;32.062;34.834;2023-02-11T15:46:38;9.68;;;3.22;;
75935;SDS011;64614;32.062;34.834;2023-02-11T15:49:04;9.05;;;3.05;;
75935;SDS011;64614;32.062;34.834;2023-02-11T15:51:33;6.88;;;3.33;;
75935;SDS011;64614;32.062;34.834;2023-02-11T15:59:19;8.43;;;3.00;;
75935;SDS011;64614;32.062;34.834;2023-02-11T16:04:57;11.25;;;2.90;;
75935;SDS011;64614;32.062;34.834;2023-02-11T16:07:41;7.20;;;2.63;;
75935;SDS011;64614;32.062;34.834;2023-02-11T16:12:53;9.07;;;2.75;;
75935;SDS011;64614;32.062;34.834;2023-02-11T16:20:50;10.02;;;3.15;;
75935;SDS011;64614;32.062;34.834;2023-02-11T16:28:30;8.48;;;3.20;;
75935;SDS011;64614;32.062;34.834;2023-02-11T16:33:58;10.15;;;2.85;;
75935;SDS011;64614;32.062;34.834;2023-02-11T16:36:23;8.38;;;2.78;;
75935;SDS011;64614;32.062;34.834;2023-02-11T16:38:49;12.35;;;3.33;;
75935;SDS011;64614;32.062;34.834;2023-02-11T16:41:15;8.90;;;3.00;;
75935;SDS011;64614;32.062;34.834;2023-02-11T16:43:40;10.45;;;2.85;;
75935;SDS011;64614;32.062;34.834;2023-02-11T16:46:06;12.05;;;2.83;;
75935;SDS011;64614;32.062;34.834;2023-02-11T16:51:09;9.23;;;3.17;;
75935;SDS011;64614;32.062;34.834;2023-02-11T16:53:36;11.23;;;3.28;;
75935;SDS011;64614;32.062;34.834;2023-02-11T16:56:03;12.20;;;3.30;;
75935;SDS011;64614;32.062;34.834;2023-02-11T16:58:29;10.68;;;3.30;;
75935;SDS011;64614;32.062;34.834;2023-02-11T17:00:55;9.00;;;3.00;;
75935;SDS011;64614;32.062;34.834;2023-02-11T17:03:23;12.55;;;3.50;;
75935;SDS011;64614;32.062;34.834;2023-02-11T17:05:51;13.10;;;3.35;;
75935;SDS011;64614;32.062;34.834;2023-02-11T17:08:17;13.25;;;3.35;;
75935;SDS011;64614;32.062;34.834;2023-02-11T17:10:44;11.75;;;3.22;;
75935;SDS011;64614;32.062;34.834;2023-02-11T17:13:10;11.00;;;3.17;;
75935;SDS011;64614;32.062;34.834;2023-02-11T17:15:36;11.77;;;3.00;;
75935;SDS011;64614;32.062;34.834;2023-02-11T17:18:01;12.90;;;3.42;;
75935;SDS011;64614;32.062;34.834;2023-02-11T17:20:27;10.75;;;2.97;;
75935;SDS011;64614;32.062;34.834;2023-02-11T17:22:53;9.10;;;3.20;;
75935;SDS011;64614;32.062;34.834;2023-02-11T17:25:21;11.52;;;3.83;;
75935;SDS011;64614;32.062;34.834;2023-02-11T17:27:49;9.68;;;3.95;;
75935;SDS011;64614;32.062;34.834;2023-02-11T17:30:15;8.43;;;2.95;;
75935;SDS011;64614;32.062;34.834;2023-02-11T17:32:41;9.25;;;3.13;;
75935;SDS011;64614;32.062;34.834;2023-02-11T17:35:07;6.35;;;2.83;;
75935;SDS011;64614;32.062;34.834;2023-02-11T17:37:33;7.32;;;3.00;;
75935;SDS011;64614;32.062;34.834;2023-02-11T17:39:59;9.60;;;2.70;;
75935;SDS011;64614;32.062;34.834;2023-02-11T17:42:25;9.10;;;3.28;;
75935;SDS011;64614;32.062;34.834;2023-02-11T17:44:51;10.77;;;3.35;;
75935;SDS011;64614;32.062;34.834;2023-02-11T17:47:17;11.68;;;2.90;;
75935;SDS011;64614;32.062;34.834;2023-02-11T17:49:43;7.05;;;2.75;;
75935;SDS011;64614;32.062;34.834;2023-02-11T17:52:11;8.80;;;3.30;;
75935;SDS011;64614;32.062;34.834;2023-02-11T17:54:37;8.80;;;3.20;;
75935;SDS011;64614;32.062;34.834;2023-02-11T17:57:06;8.48;;;3.90;;
75935;SDS011;64614;32.062;34.834;2023-02-11T17:59:33;11.18;;;3.70;;
75935;SDS011;64614;32.062;34.834;2023-02-11T18:02:00;8.98;;;3.72;;
75935;SDS011;64614;32.062;34.834;2023-02-11T18:04:27;9.07;;;3.42;;
75935;SDS011;64614;32.062;34.834;2023-02-11T18:06:52;9.40;;;3.63;;
75935;SDS011;64614;32.062;34.834;2023-02-11T18:09:19;10.20;;;2.80;;
75935;SDS011;64614;32.062;34.834;2023-02-11T18:11:49;7.00;;;2.83;;
75935;SDS011;64614;32.062;34.834;2023-02-11T18:14:17;10.18;;;3.00;;
75935;SDS011;64614;32.062;34.834;2023-02-11T18:16:43;9.48;;;3.10;;
75935;SDS011;64614;32.062;34.834;2023-02-11T18:19:12;10.40;;;3.00;;
75935;SDS011;64614;32.062;34.834;2023-02-11T18:21:38;7.60;;;2.85;;
75935;SDS011;64614;32.062;34.834;2023-02-11T18:24:04;6.22;;;2.80;;
75935;SDS011;64614;32.062;34.834;2023-02-11T18:56:26;8.98;;;3.35;;
75935;SDS011;64614;32.062;34.834;2023-02-11T19:22:03;9.32;;;4.18;;
75935;SDS011;64614;32.062;34.834;2023-02-11T19:34:36;12.75;;;3.47;;
75935;SDS011;64614;32.062;34.834;2023-02-11T19:37:05;8.73;;;3.55;;
75935;SDS011;64614;32.062;34.834;2023-02-11T19:39:37;8.98;;;3.70;;
75935;SDS011;64614;32.062;34.834;2023-02-11T19:42:05;9.40;;;4.10;;
75935;SDS011;64614;32.062;34.834;2023-02-11T19:44:31;10.05;;;3.88;;
75935;SDS011;64614;32.062;34.834;2023-02-11T19:46:58;10.05;;;3.80;;
75935;SDS011;64614;32.062;34.834;2023-02-11T19:49:24;8.15;;;3.55;;
75935;SDS011;64614;32.062;34.834;2023-02-11T19:51:54;11.05;;;3.58;;
75935;SDS011;64614;32.062;34.834;2023-02-11T19:54:24;8.88;;;3.78;;
75935;SDS011;64614;32.062;34.834;2023-02-11T19:56:52;10.60;;;3.53;;
75935;SDS011;64614;32.062;34.834;2023-02-11T19:59:18;9.80;;;3.97;;
75935;SDS011;64614;32.062;34.834;2023-02-11T20:01:44;6.43;;;3.50;;